sensor_id;sensor_type;location;lat;lon;timestamp;temperature;humidity
1025;DHT22;501;48.214;11.350;2023-06-05T00:00:02;17.80;31.30
1025;DHT22;501;48.214;11.350;2023-06-05T00:02:32;17.80;31.30
1025;DHT22;501;48.214;11.350;2023-06-05T00:04:57;17.90;31.50
1025;DHT22;501;48.214;11.350;2023-06-05T00:07:24;17.80;31.30
1025;DHT22;501;48.214;11.350;2023-06-05T00:09:52;17.80;31.80
1025;DHT22;501;48.214;11.350;2023-06-05T00:12:18;17.80;31.70
1025;DHT22;501;48.214;11.350;2023-06-05T00:14:49;17.80;31.80
1025;DHT22;501;48.214;11.350;2023-06-05T00:17:16;17.80;32.30
1025;DHT22;501;48.214;11.350;2023-06-05T00:19:42;17.80;32.10
1025;DHT22;501;48.214;11.350;2023-06-05T00:22:07;17.70;32.60
1025;DHT22;501;48.214;11.350;2023-06-05T00:24:33;17.70;32.20
1025;DHT22;501;48.214;11.350;2023-06-05T00:26:59;17.70;32.70
1025;DHT22;501;48.214;11.350;2023-06-05T00:29:25;17.70;32.60
1025;DHT22;501;48.214;11.350;2023-06-05T00:31:50;17.70;32.80
1025;DHT22;501;48.214;11.350;2023-06-05T00:34:16;17.70;32.70
1025;DHT22;501;48.214;11.350;2023-06-05T00:36:42;17.70;33.30
1025;DHT22;501;48.214;11.350;2023-06-05T00:39:07;17.70;33.10
1025;DHT22;501;48.214;11.350;2023-06-05T00:41:36;17.60;33.30
1025;DHT22;501;48.214;11.350;2023-06-05T00:44:02;17.60;33.60
1025;DHT22;501;48.214;11.350;2023-06-05T00:46:28;17.60;33.50
1025;DHT22;501;48.214;11.350;2023-06-05T00:48:54;17.60;34.30
1025;DHT22;501;48.214;11.350;2023-06-05T00:51:20;17.60;34.50
1025;DHT22;501;48.214;11.350;2023-06-05T00:53:47;17.50;35.70
1025;DHT22;501;48.214;11.350;2023-06-05T00:56:13;17.50;35.20
1025;DHT22;501;48.214;11.350;2023-06-05T00:58:38;17.50;35.60
1025;DHT22;501;48.214;11.350;2023-06-05T01:01:05;17.40;35.90
1025;DHT22;501;48.214;11.350;2023-06-05T01:03:32;17.40;36.00
1025;DHT22;501;48.214;11.350;2023-06-05T01:06:01;17.30;36.10
1025;DHT22;501;48.214;11.350;2023-06-05T01:08:34;17.30;36.50
1025;DHT22;501;48.214;11.350;2023-06-05T01:11:16;17.30;37.00
1025;DHT22;501;48.214;11.350;2023-06-05T01:13:50;17.20;37.60
1025;DHT22;501;48.214;11.350;2023-06-05T01:16:19;17.30;37.70
1025;DHT22;501;48.214;11.350;2023-06-05T01:18:48;17.20;37.90
1025;DHT22;501;48.214;11.350;2023-06-05T01:21:14;17.20;38.80
1025;DHT22;501;48.214;11.350;2023-06-05T01:23:41;17.20;38.90
1025;DHT22;501;48.214;11.350;2023-06-05T01:26:17;17.20;39.90
1025;DHT22;501;48.214;11.350;2023-06-05T01:28:48;17.20;40.00
1025;DHT22;501;48.214;11.350;2023-06-05T01:31:18;17.20;40.10
1025;DHT22;501;48.214;11.350;2023-06-05T01:34:06;17.10;40.70
1025;DHT22;501;48.214;11.350;2023-06-05T01:36:36;17.10;40.90
1025;DHT22;501;48.214;11.350;2023-06-05T01:39:03;17.10;41.00
1025;DHT22;501;48.214;11.350;2023-06-05T01:41:30;17.10;41.10
1025;DHT22;501;48.214;11.350;2023-06-05T01:43:56;17.00;41.00
1025;DHT22;501;48.214;11.350;2023-06-05T01:46:23;17.00;41.20
1025;DHT22;501;48.214;11.350;2023-06-05T01:48:50;17.00;41.50
1025;DHT22;501;48.214;11.350;2023-06-05T01:51:19;17.00;41.50
1025;DHT22;501;48.214;11.350;2023-06-05T01:53:45;16.90;41.40
1025;DHT22;501;48.214;11.350;2023-06-05T01:56:15;16.90;41.60
1025;DHT22;501;48.214;11.350;2023-06-05T01:58:49;16.90;41.80
1025;DHT22;501;48.214;11.350;2023-06-05T02:01:14;16.80;42.00
1025;DHT22;501;48.214;11.350;2023-06-05T02:03:44;16.80;42.30
1025;DHT22;501;48.214;11.350;2023-06-05T02:06:16;16.80;42.70
1025;DHT22;501;48.214;11.350;2023-06-05T02:08:42;16.70;42.80
1025;DHT22;501;48.214;11.350;2023-06-05T02:11:11;16.70;42.70
1025;DHT22;501;48.214;11.350;2023-06-05T02:13:40;16.60;42.80
1025;DHT22;501;48.214;11.350;2023-06-05T02:16:09;16.60;43.00
1025;DHT22;501;48.214;11.350;2023-06-05T02:18:35;16.50;43.00
1025;DHT22;501;48.214;11.350;2023-06-05T02:21:05;16.50;43.30
1025;DHT22;501;48.214;11.350;2023-06-05T02:23:31;16.50;43.30
1025;DHT22;501;48.214;11.350;2023-06-05T02:25:57;16.50;43.20
1025;DHT22;501;48.214;11.350;2023-06-05T02:28:23;16.40;43.40
1025;DHT22;501;48.214;11.350;2023-06-05T02:30:48;16.30;43.30
1025;DHT22;501;48.214;11.350;2023-06-05T02:33:15;16.30;43.90
1025;DHT22;501;48.214;11.350;2023-06-05T02:35:41;16.30;43.80
1025;DHT22;501;48.214;11.350;2023-06-05T02:38:10;16.30;44.30
1025;DHT22;501;48.214;11.350;2023-06-05T02:40:38;16.20;44.10
1025;DHT22;501;48.214;11.350;2023-06-05T02:43:04;16.20;44.90
1025;DHT22;501;48.214;11.350;2023-06-05T02:45:33;16.10;45.00
1025;DHT22;501;48.214;11.350;2023-06-05T02:48:02;16.00;45.20
1025;DHT22;501;48.214;11.350;2023-06-05T02:50:27;16.00;45.60
1025;DHT22;501;48.214;11.350;2023-06-05T02:52:53;15.90;45.50
1025;DHT22;501;48.214;11.350;2023-06-05T02:55:19;15.80;45.40
1025;DHT22;501;48.214;11.350;2023-06-05T02:57:45;15.80;45.60
1025;DHT22;501;48.214;11.350;2023-06-05T03:00:14;15.80;46.10
1025;DHT22;501;48.214;11.350;2023-06-05T03:02:42;15.80;45.60
1025;DHT22;501;48.214;11.350;2023-06-05T03:05:14;15.70;46.00
1025;DHT22;501;48.214;11.350;2023-06-05T03:07:39;15.70;46.60
1025;DHT22;501;48.214;11.350;2023-06-05T03:10:06;15.70;46.50
1025;DHT22;501;48.214;11.350;2023-06-05T03:12:33;15.70;47.00
1025;DHT22;501;48.214;11.350;2023-06-05T03:14:58;15.70;47.20
1025;DHT22;501;48.214;11.350;2023-06-05T03:17:24;15.60;46.90
1025;DHT22;501;48.214;11.350;2023-06-05T03:19:50;15.60;47.10
1025;DHT22;501;48.214;11.350;2023-06-05T03:22:19;15.60;47.20
1025;DHT22;501;48.214;11.350;2023-06-05T03:24:47;15.50;47.70
1025;DHT22;501;48.214;11.350;2023-06-05T03:27:13;15.60;48.00
1025;DHT22;501;48.214;11.350;2023-06-05T03:29:39;15.50;48.50
1025;DHT22;501;48.214;11.350;2023-06-05T03:32:04;15.40;48.80
1025;DHT22;501;48.214;11.350;2023-06-05T03:34:30;15.40;49.20
1025;DHT22;501;48.214;11.350;2023-06-05T03:37:02;15.30;49.40
1025;DHT22;501;48.214;11.350;2023-06-05T03:39:33;15.30;49.40
1025;DHT22;501;48.214;11.350;2023-06-05T03:41:59;15.30;49.80
1025;DHT22;501;48.214;11.350;2023-06-05T03:44:27;15.30;49.70
1025;DHT22;501;48.214;11.350;2023-06-05T03:46:53;15.20;49.80
1025;DHT22;501;48.214;11.350;2023-06-05T03:49:19;15.20;50.30
1025;DHT22;501;48.214;11.350;2023-06-05T03:51:45;15.20;50.00
1025;DHT22;501;48.214;11.350;2023-06-05T03:54:14;15.20;50.40
1025;DHT22;501;48.214;11.350;2023-06-05T03:56:42;15.20;51.10
1025;DHT22;501;48.214;11.350;2023-06-05T03:59:15;15.20;51.20
1025;DHT22;501;48.214;11.350;2023-06-05T04:01:51;15.20;51.00
1025;DHT22;501;48.214;11.350;2023-06-05T04:04:16;15.20;51.30
1025;DHT22;501;48.214;11.350;2023-06-05T04:06:45;15.20;51.40
1025;DHT22;501;48.214;11.350;2023-06-05T04:09:11;15.20;51.20
1025;DHT22;501;48.214;11.350;2023-06-05T04:11:41;15.20;51.10
1025;DHT22;501;48.214;11.350;2023-06-05T04:14:08;15.20;51.30
1025;DHT22;501;48.214;11.350;2023-06-05T04:16:38;15.30;52.10
1025;DHT22;501;48.214;11.350;2023-06-05T04:19:06;15.30;52.10
1025;DHT22;501;48.214;11.350;2023-06-05T04:21:33;15.40;52.10
1025;DHT22;501;48.214;11.350;2023-06-05T04:24:00;15.40;52.00
1025;DHT22;501;48.214;11.350;2023-06-05T04:26:29;15.40;52.30
1025;DHT22;501;48.214;11.350;2023-06-05T04:28:58;15.50;52.80
1025;DHT22;501;48.214;11.350;2023-06-05T04:31:23;15.50;52.80
1025;DHT22;501;48.214;11.350;2023-06-05T04:33:52;15.50;52.80
1025;DHT22;501;48.214;11.350;2023-06-05T04:36:18;15.60;52.80
1025;DHT22;501;48.214;11.350;2023-06-05T04:38:44;15.60;53.00
1025;DHT22;501;48.214;11.350;2023-06-05T04:41:11;15.70;53.20
1025;DHT22;501;48.214;11.350;2023-06-05T04:43:39;15.70;53.10
1025;DHT22;501;48.214;11.350;2023-06-05T04:46:10;15.80;53.20
1025;DHT22;501;48.214;11.350;2023-06-05T04:48:44;15.90;52.60
1025;DHT22;501;48.214;11.350;2023-06-05T04:51:10;15.90;52.40
1025;DHT22;501;48.214;11.350;2023-06-05T04:53:40;16.00;52.80
1025;DHT22;501;48.214;11.350;2023-06-05T04:56:07;16.00;52.90
1025;DHT22;501;48.214;11.350;2023-06-05T04:58:33;16.00;53.00
1025;DHT22;501;48.214;11.350;2023-06-05T05:01:01;16.10;52.90
1025;DHT22;501;48.214;11.350;2023-06-05T05:03:34;16.20;52.60
1025;DHT22;501;48.214;11.350;2023-06-05T05:06:01;16.30;52.90
1025;DHT22;501;48.214;11.350;2023-06-05T05:08:27;16.30;52.10
1025;DHT22;501;48.214;11.350;2023-06-05T05:10:53;16.40;51.50
1025;DHT22;501;48.214;11.350;2023-06-05T05:13:19;16.40;51.40
1025;DHT22;501;48.214;11.350;2023-06-05T05:15:45;16.50;52.20
1025;DHT22;501;48.214;11.350;2023-06-05T05:18:12;16.50;52.10
1025;DHT22;501;48.214;11.350;2023-06-05T05:20:37;16.50;51.90
1025;DHT22;501;48.214;11.350;2023-06-05T05:23:04;16.60;52.10
1025;DHT22;501;48.214;11.350;2023-06-05T05:25:33;16.60;51.70
1025;DHT22;501;48.214;11.350;2023-06-05T05:27:59;16.60;51.80
1025;DHT22;501;48.214;11.350;2023-06-05T05:30:24;16.60;51.60
1025;DHT22;501;48.214;11.350;2023-06-05T05:32:50;16.70;51.90
1025;DHT22;501;48.214;11.350;2023-06-05T05:35:16;16.80;51.90
1025;DHT22;501;48.214;11.350;2023-06-05T05:37:41;16.80;51.30
1025;DHT22;501;48.214;11.350;2023-06-05T05:40:08;16.90;50.90
1025;DHT22;501;48.214;11.350;2023-06-05T05:42:33;16.90;50.90
1025;DHT22;501;48.214;11.350;2023-06-05T05:44:59;17.00;50.10
1025;DHT22;501;48.214;11.350;2023-06-05T05:47:25;17.10;50.30
1025;DHT22;501;48.214;11.350;2023-06-05T05:49:50;17.10;49.80
1025;DHT22;501;48.214;11.350;2023-06-05T05:52:16;17.20;48.70
1025;DHT22;501;48.214;11.350;2023-06-05T05:54:45;17.30;49.40
1025;DHT22;501;48.214;11.350;2023-06-05T05:57:11;17.40;48.60
1025;DHT22;501;48.214;11.350;2023-06-05T05:59:37;17.60;47.80
1025;DHT22;501;48.214;11.350;2023-06-05T06:02:03;17.60;47.10
1025;DHT22;501;48.214;11.350;2023-06-05T06:08:15;17.70;46.20
1025;DHT22;501;48.214;11.350;2023-06-05T06:11:15;17.80;46.90
1025;DHT22;501;48.214;11.350;2023-06-05T06:13:49;17.90;46.10
1025;DHT22;501;48.214;11.350;2023-06-05T06:16:23;17.90;46.80
1025;DHT22;501;48.214;11.350;2023-06-05T06:22:08;17.90;45.10
1025;DHT22;501;48.214;11.350;2023-06-05T06:25:11;18.00;45.90
1025;DHT22;501;48.214;11.350;2023-06-05T06:27:55;18.00;45.70
1025;DHT22;501;48.214;11.350;2023-06-05T06:30:44;18.10;46.40
1025;DHT22;501;48.214;11.350;2023-06-05T06:33:28;18.20;45.60
1025;DHT22;501;48.214;11.350;2023-06-05T06:39:01;18.30;44.50
1025;DHT22;501;48.214;11.350;2023-06-05T06:41:29;18.40;44.20
1025;DHT22;501;48.214;11.350;2023-06-05T06:44:17;18.50;43.40
1025;DHT22;501;48.214;11.350;2023-06-05T06:46:51;18.50;44.70
1025;DHT22;501;48.214;11.350;2023-06-05T06:49:28;18.60;44.60
1025;DHT22;501;48.214;11.350;2023-06-05T06:51:56;18.60;43.70
1025;DHT22;501;48.214;11.350;2023-06-05T06:54:54;18.70;43.50
1025;DHT22;501;48.214;11.350;2023-06-05T06:58:03;18.80;43.20
1025;DHT22;501;48.214;11.350;2023-06-05T07:01:03;18.90;43.20
1025;DHT22;501;48.214;11.350;2023-06-05T07:03:51;18.90;41.50
1025;DHT22;501;48.214;11.350;2023-06-05T07:06:27;19.00;41.70
1025;DHT22;501;48.214;11.350;2023-06-05T07:09:06;19.00;42.50
1025;DHT22;501;48.214;11.350;2023-06-05T07:11:51;19.10;41.30
1025;DHT22;501;48.214;11.350;2023-06-05T07:14:49;19.20;41.40
1025;DHT22;501;48.214;11.350;2023-06-05T07:17:40;19.20;41.50
1025;DHT22;501;48.214;11.350;2023-06-05T07:20:11;19.30;41.20
1025;DHT22;501;48.214;11.350;2023-06-05T07:22:53;19.40;41.40
1025;DHT22;501;48.214;11.350;2023-06-05T07:25:45;19.40;41.50
1025;DHT22;501;48.214;11.350;2023-06-05T07:28:18;19.50;39.70
1025;DHT22;501;48.214;11.350;2023-06-05T07:30:50;19.60;39.80
1025;DHT22;501;48.214;11.350;2023-06-05T07:33:58;19.60;39.80
1025;DHT22;501;48.214;11.350;2023-06-05T07:40:03;19.70;39.40
1025;DHT22;501;48.214;11.350;2023-06-05T07:42:36;19.80;39.40
1025;DHT22;501;48.214;11.350;2023-06-05T07:45:11;19.90;39.50
1025;DHT22;501;48.214;11.350;2023-06-05T07:48:08;19.90;39.30
1025;DHT22;501;48.214;11.350;2023-06-05T07:51:11;20.00;39.50
1025;DHT22;501;48.214;11.350;2023-06-05T07:53:43;20.10;38.90
1025;DHT22;501;48.214;11.350;2023-06-05T07:56:14;20.20;39.20
1025;DHT22;501;48.214;11.350;2023-06-05T07:58:45;20.30;36.90
1025;DHT22;501;48.214;11.350;2023-06-05T08:01:15;20.30;36.40
1025;DHT22;501;48.214;11.350;2023-06-05T08:03:44;20.30;37.30
1025;DHT22;501;48.214;11.350;2023-06-05T08:06:24;20.30;37.40
1025;DHT22;501;48.214;11.350;2023-06-05T08:09:12;20.30;38.10
1025;DHT22;501;48.214;11.350;2023-06-05T08:11:54;20.30;37.30
1025;DHT22;501;48.214;11.350;2023-06-05T08:14:25;20.30;37.70
1025;DHT22;501;48.214;11.350;2023-06-05T08:16:55;20.40;37.00
1025;DHT22;501;48.214;11.350;2023-06-05T08:19:39;20.30;36.70
1025;DHT22;501;48.214;11.350;2023-06-05T08:22:10;20.40;36.00
1025;DHT22;501;48.214;11.350;2023-06-05T08:24:46;20.40;36.20
1025;DHT22;501;48.214;11.350;2023-06-05T08:27:35;20.40;35.30
1025;DHT22;501;48.214;11.350;2023-06-05T08:30:20;20.40;36.40
1025;DHT22;501;48.214;11.350;2023-06-05T08:32:56;20.50;36.00
1025;DHT22;501;48.214;11.350;2023-06-05T08:35:58;20.50;36.40
1025;DHT22;501;48.214;11.350;2023-06-05T08:38:31;20.50;35.00
1025;DHT22;501;48.214;11.350;2023-06-05T08:41:05;20.60;36.30
1025;DHT22;501;48.214;11.350;2023-06-05T08:43:46;20.60;35.60
1025;DHT22;501;48.214;11.350;2023-06-05T08:46:18;20.70;34.60
1025;DHT22;501;48.214;11.350;2023-06-05T08:48:58;20.70;34.60
1025;DHT22;501;48.214;11.350;2023-06-05T08:51:33;20.70;34.60
1025;DHT22;501;48.214;11.350;2023-06-05T08:54:12;20.80;33.60
1025;DHT22;501;48.214;11.350;2023-06-05T08:59:57;20.90;34.30
1025;DHT22;501;48.214;11.350;2023-06-05T09:02:37;21.00;32.90
1025;DHT22;501;48.214;11.350;2023-06-05T09:05:20;21.00;33.40
1025;DHT22;501;48.214;11.350;2023-06-05T09:07:54;21.10;33.90
1025;DHT22;501;48.214;11.350;2023-06-05T09:10:40;21.10;32.20
1025;DHT22;501;48.214;11.350;2023-06-05T09:13:45;21.10;31.80
1025;DHT22;501;48.214;11.350;2023-06-05T09:16:36;21.10;32.20
1025;DHT22;501;48.214;11.350;2023-06-05T09:19:11;21.20;33.20
1025;DHT22;501;48.214;11.350;2023-06-05T09:22:31;21.20;32.90
1025;DHT22;501;48.214;11.350;2023-06-05T09:25:03;21.30;32.90
1025;DHT22;501;48.214;11.350;2023-06-05T09:27:39;21.30;33.00
1025;DHT22;501;48.214;11.350;2023-06-05T09:30:10;21.40;32.10
1025;DHT22;501;48.214;11.350;2023-06-05T09:32:39;21.40;32.00
1025;DHT22;501;48.214;11.350;2023-06-05T09:35:15;21.50;32.10
1025;DHT22;501;48.214;11.350;2023-06-05T09:40:40;21.60;32.20
1025;DHT22;501;48.214;11.350;2023-06-05T09:43:21;21.70;32.30
1025;DHT22;501;48.214;11.350;2023-06-05T09:48:36;21.80;31.50
1025;DHT22;501;48.214;11.350;2023-06-05T09:53:44;21.90;32.10
1025;DHT22;501;48.214;11.350;2023-06-05T09:59:11;22.10;30.30
1025;DHT22;501;48.214;11.350;2023-06-05T10:02:02;22.10;29.60
1025;DHT22;501;48.214;11.350;2023-06-05T10:05:02;22.20;29.40
1025;DHT22;501;48.214;11.350;2023-06-05T10:07:53;22.20;28.70
1025;DHT22;501;48.214;11.350;2023-06-05T10:10:58;22.20;29.20
1025;DHT22;501;48.214;11.350;2023-06-05T10:13:34;22.30;29.80
1025;DHT22;501;48.214;11.350;2023-06-05T10:19:37;22.50;29.10
1025;DHT22;501;48.214;11.350;2023-06-05T10:35:17;23.00;28.40
1025;DHT22;501;48.214;11.350;2023-06-05T10:40:30;23.10;27.40
1025;DHT22;501;48.214;11.350;2023-06-05T10:43:28;23.10;27.60
1025;DHT22;501;48.214;11.350;2023-06-05T10:45:55;23.10;28.10
1025;DHT22;501;48.214;11.350;2023-06-05T10:48:24;23.20;27.90
1025;DHT22;501;48.214;11.350;2023-06-05T10:51:39;23.30;28.70
1025;DHT22;501;48.214;11.350;2023-06-05T10:54:15;23.40;27.30
1025;DHT22;501;48.214;11.350;2023-06-05T10:59:31;23.50;27.40
1025;DHT22;501;48.214;11.350;2023-06-05T11:07:19;24.10;26.90
1025;DHT22;501;48.214;11.350;2023-06-05T11:10:07;24.30;27.20
1025;DHT22;501;48.214;11.350;2023-06-05T11:15:14;24.20;26.20
1025;DHT22;501;48.214;11.350;2023-06-05T11:17:42;24.30;26.20
1025;DHT22;501;48.214;11.350;2023-06-05T11:27:58;24.50;26.40
1025;DHT22;501;48.214;11.350;2023-06-05T11:30:32;24.80;25.50
1025;DHT22;501;48.214;11.350;2023-06-05T11:33:08;25.20;25.40
1025;DHT22;501;48.214;11.350;2023-06-05T11:35:37;25.60;24.60
1025;DHT22;501;48.214;11.350;2023-06-05T11:40:36;26.40;22.60
1025;DHT22;501;48.214;11.350;2023-06-05T11:43:03;26.70;22.70
1025;DHT22;501;48.214;11.350;2023-06-05T11:45:33;27.00;22.40
1025;DHT22;501;48.214;11.350;2023-06-05T11:48:09;27.30;21.90
1025;DHT22;501;48.214;11.350;2023-06-05T11:50:36;27.50;22.00
1025;DHT22;501;48.214;11.350;2023-06-05T11:53:10;27.70;20.30
1025;DHT22;501;48.214;11.350;2023-06-05T11:55:37;28.00;19.90
1025;DHT22;501;48.214;11.350;2023-06-05T11:58:21;28.10;19.70
1025;DHT22;501;48.214;11.350;2023-06-05T12:00:48;28.20;19.90
1025;DHT22;501;48.214;11.350;2023-06-05T12:03:20;28.30;20.00
1025;DHT22;501;48.214;11.350;2023-06-05T12:05:47;28.40;19.90
1025;DHT22;501;48.214;11.350;2023-06-05T12:08:29;28.60;18.30
1025;DHT22;501;48.214;11.350;2023-06-05T12:11:00;28.80;17.30
1025;DHT22;501;48.214;11.350;2023-06-05T12:16:12;29.30;16.80
1025;DHT22;501;48.214;11.350;2023-06-05T12:18:37;29.50;17.50
1025;DHT22;501;48.214;11.350;2023-06-05T12:21:03;29.70;17.00
1025;DHT22;501;48.214;11.350;2023-06-05T12:23:30;29.90;16.60
1025;DHT22;501;48.214;11.350;2023-06-05T12:26:03;30.20;17.00
1025;DHT22;501;48.214;11.350;2023-06-05T12:28:30;30.30;16.50
1025;DHT22;501;48.214;11.350;2023-06-05T12:30:57;30.40;15.90
1025;DHT22;501;48.214;11.350;2023-06-05T12:33:23;30.40;15.20
1025;DHT22;501;48.214;11.350;2023-06-05T12:44:11;29.90;16.40
1025;DHT22;501;48.214;11.350;2023-06-05T12:47:02;30.00;16.30
1025;DHT22;501;48.214;11.350;2023-06-05T12:49:52;30.00;14.50
1025;DHT22;501;48.214;11.350;2023-06-05T12:55:33;29.70;15.30
1025;DHT22;501;48.214;11.350;2023-06-05T12:58:20;29.70;16.00
1025;DHT22;501;48.214;11.350;2023-06-05T13:00:56;29.90;16.50
1025;DHT22;501;48.214;11.350;2023-06-05T13:03:36;30.10;17.00
1025;DHT22;501;48.214;11.350;2023-06-05T13:06:49;30.30;17.40
1025;DHT22;501;48.214;11.350;2023-06-05T13:09:27;30.70;15.30
1025;DHT22;501;48.214;11.350;2023-06-05T13:11:59;31.00;16.20
1025;DHT22;501;48.214;11.350;2023-06-05T13:17:23;31.10;15.00
1025;DHT22;501;48.214;11.350;2023-06-05T13:20:20;30.80;14.90
1025;DHT22;501;48.214;11.350;2023-06-05T13:23:01;30.40;15.10
1025;DHT22;501;48.214;11.350;2023-06-05T13:25:42;30.10;16.30
1025;DHT22;501;48.214;11.350;2023-06-05T13:28:31;30.10;17.60
1025;DHT22;501;48.214;11.350;2023-06-05T13:31:08;30.20;16.50
1025;DHT22;501;48.214;11.350;2023-06-05T13:33:42;30.40;18.20
1025;DHT22;501;48.214;11.350;2023-06-05T13:36:13;30.60;18.80
1025;DHT22;501;48.214;11.350;2023-06-05T13:39:08;30.90;18.80
1025;DHT22;501;48.214;11.350;2023-06-05T13:41:42;31.10;18.80
1025;DHT22;501;48.214;11.350;2023-06-05T13:47:23;31.10;19.10
1025;DHT22;501;48.214;11.350;2023-06-05T13:49:59;30.60;19.80
1025;DHT22;501;48.214;11.350;2023-06-05T13:52:25;30.30;20.00
1025;DHT22;501;48.214;11.350;2023-06-05T13:57:56;29.50;21.10
1025;DHT22;501;48.214;11.350;2023-06-05T14:00:43;29.10;21.90
1025;DHT22;501;48.214;11.350;2023-06-05T14:03:12;28.80;22.60
1025;DHT22;501;48.214;11.350;2023-06-05T14:05:40;28.50;22.80
1025;DHT22;501;48.214;11.350;2023-06-05T14:08:09;28.30;22.80
1025;DHT22;501;48.214;11.350;2023-06-05T14:10:34;28.00;23.30
1025;DHT22;501;48.214;11.350;2023-06-05T14:13:02;27.70;23.60
1025;DHT22;501;48.214;11.350;2023-06-05T14:15:29;27.60;24.30
1025;DHT22;501;48.214;11.350;2023-06-05T14:17:55;27.50;24.20
1025;DHT22;501;48.214;11.350;2023-06-05T14:20:22;27.50;24.60
1025;DHT22;501;48.214;11.350;2023-06-05T14:22:49;27.60;24.30
1025;DHT22;501;48.214;11.350;2023-06-05T14:25:15;27.60;24.90
1025;DHT22;501;48.214;11.350;2023-06-05T14:27:40;27.60;24.10
1025;DHT22;501;48.214;11.350;2023-06-05T14:30:07;27.30;24.50
1025;DHT22;501;48.214;11.350;2023-06-05T14:32:34;27.20;24.50
1025;DHT22;501;48.214;11.350;2023-06-05T14:35:01;27.00;25.30
1025;DHT22;501;48.214;11.350;2023-06-05T14:37:27;26.80;25.10
1025;DHT22;501;48.214;11.350;2023-06-05T14:39:52;26.80;25.80
1025;DHT22;501;48.214;11.350;2023-06-05T14:42:18;26.60;25.50
1025;DHT22;501;48.214;11.350;2023-06-05T14:44:44;26.40;25.80
1025;DHT22;501;48.214;11.350;2023-06-05T14:47:09;26.40;26.00
1025;DHT22;501;48.214;11.350;2023-06-05T14:49:35;26.30;25.80
1025;DHT22;501;48.214;11.350;2023-06-05T14:52:00;26.40;26.10
1025;DHT22;501;48.214;11.350;2023-06-05T14:54:26;26.50;25.90
1025;DHT22;501;48.214;11.350;2023-06-05T14:56:52;26.60;26.90
1025;DHT22;501;48.214;11.350;2023-06-05T14:59:17;26.80;25.90
1025;DHT22;501;48.214;11.350;2023-06-05T15:01:43;26.90;25.80
1025;DHT22;501;48.214;11.350;2023-06-05T15:04:08;27.00;25.70
1025;DHT22;501;48.214;11.350;2023-06-05T15:06:34;27.10;25.40
1025;DHT22;501;48.214;11.350;2023-06-05T15:09:00;27.00;24.90
1025;DHT22;501;48.214;11.350;2023-06-05T15:11:25;26.90;25.00
1025;DHT22;501;48.214;11.350;2023-06-05T15:13:51;26.70;25.20
1025;DHT22;501;48.214;11.350;2023-06-05T15:16:17;26.50;25.30
1025;DHT22;501;48.214;11.350;2023-06-05T15:18:42;26.40;25.60
1025;DHT22;501;48.214;11.350;2023-06-05T15:21:08;26.20;25.70
1025;DHT22;501;48.214;11.350;2023-06-05T15:23:34;26.20;26.00
1025;DHT22;501;48.214;11.350;2023-06-05T15:26:00;26.20;26.10
1025;DHT22;501;48.214;11.350;2023-06-05T15:28:25;26.40;26.00
1025;DHT22;501;48.214;11.350;2023-06-05T15:30:51;26.60;25.80
1025;DHT22;501;48.214;11.350;2023-06-05T15:33:16;26.60;26.10
1025;DHT22;501;48.214;11.350;2023-06-05T15:35:42;26.50;25.70
1025;DHT22;501;48.214;11.350;2023-06-05T15:38:10;26.30;26.00
1025;DHT22;501;48.214;11.350;2023-06-05T15:41:18;26.10;25.90
1025;DHT22;501;48.214;11.350;2023-06-05T15:43:53;25.80;26.00
1025;DHT22;501;48.214;11.350;2023-06-05T15:46:30;25.60;26.30
1025;DHT22;501;48.214;11.350;2023-06-05T15:48:58;25.40;26.90
1025;DHT22;501;48.214;11.350;2023-06-05T15:51:29;25.20;26.90
1025;DHT22;501;48.214;11.350;2023-06-05T15:54:09;25.00;27.20
1025;DHT22;501;48.214;11.350;2023-06-05T15:57:00;24.80;27.60
1025;DHT22;501;48.214;11.350;2023-06-05T15:59:58;24.60;27.90
1025;DHT22;501;48.214;11.350;2023-06-05T16:02:46;24.40;27.40
1025;DHT22;501;48.214;11.350;2023-06-05T16:08:29;24.20;28.20
1025;DHT22;501;48.214;11.350;2023-06-05T16:10:59;24.00;28.30
1025;DHT22;501;48.214;11.350;2023-06-05T16:13:49;23.90;28.30
1025;DHT22;501;48.214;11.350;2023-06-05T16:22:36;23.40;28.50
1025;DHT22;501;48.214;11.350;2023-06-05T16:28:16;23.30;29.50
1025;DHT22;501;48.214;11.350;2023-06-05T16:34:19;23.10;29.80
1025;DHT22;501;48.214;11.350;2023-06-05T16:36:49;23.00;30.10
1025;DHT22;501;48.214;11.350;2023-06-05T16:39:35;22.90;30.20
1025;DHT22;501;48.214;11.350;2023-06-05T16:42:30;22.80;30.60
1025;DHT22;501;48.214;11.350;2023-06-05T16:44:56;22.80;30.70
1025;DHT22;501;48.214;11.350;2023-06-05T16:47:29;22.70;30.90
1025;DHT22;501;48.214;11.350;2023-06-05T16:50:15;22.70;31.20
1025;DHT22;501;48.214;11.350;2023-06-05T16:52:50;22.70;31.70
1025;DHT22;501;48.214;11.350;2023-06-05T16:55:23;22.70;32.00
1025;DHT22;501;48.214;11.350;2023-06-05T16:58:09;22.60;32.30
1025;DHT22;501;48.214;11.350;2023-06-05T17:00:41;22.60;32.30
1025;DHT22;501;48.214;11.350;2023-06-05T17:03:48;22.50;32.00
1025;DHT22;501;48.214;11.350;2023-06-05T17:06:36;22.50;32.20
1025;DHT22;501;48.214;11.350;2023-06-05T17:09:56;22.40;31.70
1025;DHT22;501;48.214;11.350;2023-06-05T17:12:27;22.30;31.50
1025;DHT22;501;48.214;11.350;2023-06-05T17:19:04;22.20;31.50
1025;DHT22;501;48.214;11.350;2023-06-05T17:22:06;22.10;31.40
1025;DHT22;501;48.214;11.350;2023-06-05T17:24:58;22.10;32.20
1025;DHT22;501;48.214;11.350;2023-06-05T17:31:02;22.10;32.70
1025;DHT22;501;48.214;11.350;2023-06-05T17:33:27;22.10;32.70
1025;DHT22;501;48.214;11.350;2023-06-05T17:36:11;22.10;32.70
1025;DHT22;501;48.214;11.350;2023-06-05T17:39:01;22.10;32.70
1025;DHT22;501;48.214;11.350;2023-06-05T17:41:44;22.10;32.70
1025;DHT22;501;48.214;11.350;2023-06-05T17:44:19;22.10;32.70
1025;DHT22;501;48.214;11.350;2023-06-05T17:47:08;22.10;33.80
1025;DHT22;501;48.214;11.350;2023-06-05T17:49:52;22.10;34.00
1025;DHT22;501;48.214;11.350;2023-06-05T17:53:28;22.00;33.10
1025;DHT22;501;48.214;11.350;2023-06-05T17:59:23;21.90;33.50
1025;DHT22;501;48.214;11.350;2023-06-05T18:01:52;21.90;33.60
1025;DHT22;501;48.214;11.350;2023-06-05T18:04:22;21.90;33.80
1025;DHT22;501;48.214;11.350;2023-06-05T18:06:51;21.90;33.60
1025;DHT22;501;48.214;11.350;2023-06-05T18:09:16;21.80;33.10
1025;DHT22;501;48.214;11.350;2023-06-05T18:11:43;21.80;33.90
1025;DHT22;501;48.214;11.350;2023-06-05T18:14:11;21.80;34.00
1025;DHT22;501;48.214;11.350;2023-06-05T18:16:39;21.80;33.90
1025;DHT22;501;48.214;11.350;2023-06-05T18:19:05;21.80;34.40
1025;DHT22;501;48.214;11.350;2023-06-05T18:21:57;21.70;34.40
1025;DHT22;501;48.214;11.350;2023-06-05T18:24:34;21.70;34.30
1025;DHT22;501;48.214;11.350;2023-06-05T18:27:02;21.60;34.20
1025;DHT22;501;48.214;11.350;2023-06-05T18:29:31;21.70;34.30
1025;DHT22;501;48.214;11.350;2023-06-05T18:32:22;21.60;34.90
1025;DHT22;501;48.214;11.350;2023-06-05T18:34:48;21.60;34.60
1025;DHT22;501;48.214;11.350;2023-06-05T18:37:14;21.50;34.80
1025;DHT22;501;48.214;11.350;2023-06-05T18:39:40;21.50;34.80